Time;durP1;ratioP1;P1;durP2;ratioP2;P2;SDS_P1;SDS_P2;PMS_P1;PMS_P2;Temp;Humidity;BMP_temperature;BMP_pressure;BME280_temperature;BME280_humidity;BME280_pressure;Samples;Min_cycle;Max_cycle;Signal;HPM_P1;HPM_P2
2022/04/21 00:00:24;;;;;;;8.32;5.63;;;7.00;99.90;;;;;;5077201;28;20485;-73
2022/04/21 00:02:50;;;;;;;12.90;5.90;;;7.00;99.90;;;;;;5048172;28;20032;-73
2022/04/21 00:05:16;;;;;;;9.30;6.07;;;6.90;99.90;;;;;;5070451;28;20032;-73
2022/04/21 00:07:42;;;;;;;9.18;5.47;;;6.90;99.90;;;;;;5064240;28;20422;-73
2022/04/21 00:10:08;;;;;;;9.50;6.13;;;6.90;99.90;;;;;;5058358;28;20040;-73
2022/04/21 00:12:34;;;;;;;9.70;5.28;;;6.80;99.90;;;;;;5072914;28;20054;-73
2022/04/21 00:15:03;;;;;;;10.45;6.07;;;6.80;99.90;;;;;;5080712;28;20043;-73
2022/04/21 00:17:28;;;;;;;8.98;6.05;;;6.80;99.90;;;;;;5081181;28;20433;-73
2022/04/21 00:19:54;;;;;;;9.65;5.80;;;6.80;99.90;;;;;;5083276;28;20039;-73
2022/04/21 00:25:05;;;;;;;13.63;5.88;;;6.70;99.90;;;;;;5098721;28;20096;-73
2022/04/21 00:27:36;;;;;;;8.02;5.88;;;6.70;99.90;;;;;;5057796;28;20036;-73
2022/04/21 00:30:02;;;;;;;11.20;6.18;;;6.60;99.90;;;;;;5061070;28;20033;-73
2022/04/21 00:32:27;;;;;;;8.43;5.50;;;6.60;99.90;;;;;;5079484;28;20069;-73
2022/04/21 00:34:53;;;;;;;11.75;6.07;;;6.60;99.90;;;;;;5048635;28;20122;-73
2022/04/21 00:37:19;;;;;;;13.30;6.13;;;6.50;99.90;;;;;;5069627;28;20068;-72
2022/04/21 00:39:44;;;;;;;9.40;5.43;;;6.40;99.90;;;;;;5055315;28;20036;-73
2022/04/21 00:42:10;;;;;;;12.40;6.32;;;6.40;99.90;;;;;;5069065;28;20048;-73
2022/04/21 00:44:36;;;;;;;11.98;6.57;;;6.40;99.90;;;;;;5080612;28;20359;-73
2022/04/21 00:47:03;;;;;;;9.93;5.53;;;6.40;99.90;;;;;;5087232;28;20040;-73
2022/04/21 00:49:32;;;;;;;11.10;5.90;;;6.40;99.90;;;;;;5081159;28;20075;-73
2022/04/21 00:52:00;;;;;;;9.43;6.10;;;6.40;99.90;;;;;;5076689;28;20040;-73
2022/04/21 00:54:29;;;;;;;13.85;6.35;;;6.30;99.90;;;;;;5061857;28;20142;-73
2022/04/21 00:56:55;;;;;;;11.55;6.10;;;6.30;99.90;;;;;;5078189;28;20401;-73
2022/04/21 00:59:21;;;;;;;10.93;5.55;;;6.30;99.90;;;;;;5049451;28;20048;-73
2022/04/21 01:04:49;;;;;;;11.45;6.80;;;6.20;99.90;;;;;;5032251;28;20107;-73
2022/04/21 01:07:14;;;;;;;9.20;5.97;;;6.20;99.90;;;;;;5081964;28;20052;-73
2022/04/21 01:09:41;;;;;;;10.85;6.47;;;6.10;99.90;;;;;;5049300;28;20079;-73
2022/04/21 01:12:11;;;;;;;8.77;6.20;;;6.10;99.90;;;;;;5081428;28;20058;-73
2022/04/21 01:14:37;;;;;;;12.90;6.57;;;6.10;99.90;;;;;;5076516;28;20051;-73
2022/04/21 01:17:07;;;;;;;9.05;6.25;;;6.00;99.90;;;;;;5078952;28;20100;-73
2022/04/21 01:19:33;;;;;;;10.68;6.97;;;6.10;99.90;;;;;;5055142;28;20035;-73
2022/04/21 01:22:00;;;;;;;9.35;6.80;;;6.00;99.90;;;;;;5097243;28;20051;-74
2022/04/21 01:27:33;;;;;;;10.65;6.65;;;6.00;99.90;;;;;;5102669;22;20134;-88
2022/04/21 01:30:01;;;;;;;11.25;7.15;;;6.30;99.90;;;;;;5071306;28;20124;-88
2022/04/21 01:32:26;;;;;;;11.10;6.18;;;6.00;99.90;;;;;;5055896;28;20063;-88
2022/04/21 01:34:52;;;;;;;12.82;7.18;;;6.20;99.90;;;;;;5021688;28;20102;-87
2022/04/21 01:42:47;;;;;;;12.52;7.03;;;5.80;99.90;;;;;;5062003;28;20093;-88
2022/04/21 01:45:13;;;;;;;13.35;7.40;;;5.80;99.90;;;;;;5058969;28;20047;-88
2022/04/21 01:47:39;;;;;;;14.23;8.10;;;5.70;99.90;;;;;;5043407;28;20192;-88
2022/04/21 01:50:07;;;;;;;10.35;6.75;;;6.30;99.90;;;;;;5058326;28;20052;-88
2022/04/21 01:52:35;;;;;;;11.48;7.35;;;5.70;99.90;;;;;;5039853;28;20032;-88
2022/04/21 01:55:01;;;;;;;11.50;7.68;;;5.60;99.90;;;;;;5056780;28;20063;-88
2022/04/21 01:57:27;;;;;;;13.07;8.18;;;5.80;99.90;;;;;;5063979;28;20036;-89
2022/04/21 01:59:52;;;;;;;12.73;7.70;;;5.60;99.90;;;;;;5063929;28;20024;-88
2022/04/21 02:02:18;;;;;;;13.18;8.48;;;6.10;99.90;;;;;;5077576;28;20046;-89
2022/04/21 02:04:44;;;;;;;12.45;8.30;;;5.60;99.90;;;;;;5071626;28;20054;-89
2022/04/21 02:07:09;;;;;;;14.35;8.93;;;5.50;99.90;;;;;;5086548;28;20036;-87
2022/04/21 02:09:35;;;;;;;14.20;8.63;;;5.50;99.90;;;;;;5097679;28;20040;-87
2022/04/21 02:12:01;;;;;;;12.38;8.10;;;5.50;99.90;;;;;;5061992;28;20027;-88
2022/04/21 02:14:27;;;;;;;17.45;9.38;;;5.50;99.90;;;;;;5061597;28;20505;-88
2022/04/21 02:16:53;;;;;;;14.48;9.60;;;5.40;99.90;;;;;;5061406;28;20048;-88
2022/04/21 02:19:18;;;;;;;14.15;9.00;;;5.40;99.90;;;;;;5049171;28;20127;-88
2022/04/21 02:21:44;;;;;;;14.88;9.80;;;5.50;99.90;;;;;;5039585;28;20044;-87
2022/04/21 02:24:10;;;;;;;14.25;9.50;;;5.40;99.90;;;;;;5039790;28;20508;-88
2022/04/21 02:26:35;;;;;;;14.98;9.45;;;5.30;99.90;;;;;;5039814;28;20055;-88
2022/04/21 02:29:03;;;;;;;16.25;9.45;;;5.30;99.90;;;;;;5058618;28;20062;-90
2022/04/21 02:31:29;;;;;;;15.23;9.98;;;5.30;99.90;;;;;;5053993;28;20604;-88
2022/04/21 02:33:55;;;;;;;13.30;8.88;;;5.30;99.90;;;;;;5056579;28;20036;-87
2022/04/21 02:36:20;;;;;;;13.95;9.43;;;5.50;99.90;;;;;;5043178;28;20066;-88
2022/04/21 02:38:46;;;;;;;16.80;9.55;;;5.20;99.90;;;;;;5080557;28;20039;-88
2022/04/21 02:41:12;;;;;;;13.35;8.75;;;5.20;99.90;;;;;;5058790;28;20060;-88
2022/04/21 02:43:37;;;;;;;13.60;9.18;;;5.20;99.90;;;;;;5069578;28;20048;-88
2022/04/21 02:46:03;;;;;;;12.98;8.95;;;5.10;99.90;;;;;;5051833;28;20035;-88
2022/04/21 02:48:29;;;;;;;16.60;9.65;;;5.10;99.90;;;;;;5037308;28;20116;-88
2022/04/21 02:50:55;;;;;;;15.50;9.80;;;5.10;99.90;;;;;;5036839;28;20128;-88
2022/04/21 02:57:19;;;;;;;16.35;9.27;;;5.10;99.90;;;;;;5037760;28;20115;-88
2022/04/21 02:58:52;;;;;;;15.05;9.02;;;5.20;99.90;;;;;;5056990;28;20040;-88
2022/04/21 03:01:17;;;;;;;15.18;8.68;;;5.00;99.90;;;;;;5055196;28;20047;-88
2022/04/21 03:03:43;;;;;;;16.83;8.77;;;5.00;99.90;;;;;;5053514;28;20040;-88
2022/04/21 03:06:11;;;;;;;15.05;9.20;;;4.90;99.90;;;;;;5053405;28;20032;-87
2022/04/21 03:08:37;;;;;;;13.55;8.48;;;4.90;99.90;;;;;;5068760;28;20113;-87
2022/04/21 03:11:02;;;;;;;12.15;8.38;;;4.90;99.90;;;;;;5050767;28;20039;-87
2022/04/21 03:13:28;;;;;;;17.08;9.30;;;4.90;99.90;;;;;;5037051;28;20430;-87
2022/04/21 03:15:54;;;;;;;13.98;8.80;;;5.50;99.90;;;;;;5053431;28;20028;-87
2022/04/21 03:18:19;;;;;;;12.55;8.88;;;4.90;99.90;;;;;;5024819;28;20040;-88
2022/04/21 03:26:17;;;;;;;15.93;9.20;;;5.40;99.90;;;;;;5067427;28;20043;-87
2022/04/21 03:28:43;;;;;;;16.33;10.43;;;4.90;99.90;;;;;;5051937;28;20481;-87
2022/04/21 03:31:09;;;;;;;15.18;8.55;;;5.10;99.90;;;;;;5019632;28;20042;-87
2022/04/21 03:33:36;;;;;;;13.65;9.30;;;4.70;99.90;;;;;;5069584;28;20040;-87
2022/04/21 03:36:01;;;;;;;14.98;8.98;;;4.80;99.90;;;;;;5051040;28;20036;-88
2022/04/21 03:38:27;;;;;;;15.75;8.93;;;4.70;99.90;;;;;;5036160;28;20100;-88
2022/04/21 03:40:53;;;;;;;14.88;9.57;;;4.70;99.90;;;;;;5034610;28;20127;-88
2022/04/21 03:43:19;;;;;;;11.82;8.77;;;4.70;99.90;;;;;;5068270;28;20455;-88
2022/04/21 03:45:45;;;;;;;14.82;9.30;;;4.60;99.90;;;;;;5036507;28;20036;-88
2022/04/21 03:48:10;;;;;;;15.40;9.20;;;5.10;99.90;;;;;;5052026;28;20089;-88
2022/04/21 03:50:36;;;;;;;15.23;9.95;;;4.60;99.90;;;;;;5034744;28;20059;-88
2022/04/21 03:53:01;;;;;;;16.33;9.68;;;4.60;99.90;;;;;;5035638;28;20401;-88
2022/04/21 03:55:27;;;;;;;16.00;10.25;;;4.50;99.90;;;;;;5048137;28;20102;-88
2022/04/21 03:57:53;;;;;;;14.88;9.05;;;5.20;99.90;;;;;;5047301;28;20685;-88
2022/04/21 04:00:18;;;;;;;15.43;9.60;;;4.50;99.90;;;;;;5052063;28;20032;-88
2022/04/21 04:02:44;;;;;;;16.83;9.43;;;4.50;99.90;;;;;;5035130;28;20062;-88
2022/04/21 04:05:10;;;;;;;15.02;9.57;;;5.10;99.90;;;;;;5049056;28;20043;-87
2022/04/21 04:13:04;;;;;;;14.23;9.48;;;4.70;99.90;;;;;;5054474;28;20040;-88
2022/04/21 04:15:29;;;;;;;17.70;9.50;;;4.30;99.90;;;;;;5032732;28;20401;-88
2022/04/21 04:17:55;;;;;;;14.93;9.40;;;4.30;99.90;;;;;;5035717;28;20046;-88
2022/04/21 04:20:21;;;;;;;14.48;9.45;;;4.40;99.90;;;;;;5058984;28;20055;-88
2022/04/21 04:22:47;;;;;;;19.10;9.75;;;4.70;99.90;;;;;;5060571;28;20039;-88
2022/04/21 04:25:12;;;;;;;15.70;10.43;;;4.30;99.90;;;;;;5077956;28;20035;-88
2022/04/21 04:27:38;;;;;;;20.75;10.50;;;4.30;99.90;;;;;;5036394;28;20047;-88
2022/04/21 04:30:07;;;;;;;12.00;9.18;;;4.90;99.90;;;;;;5035089;28;20036;-88
2022/04/21 04:32:33;;;;;;;14.63;9.73;;;4.30;99.90;;;;;;5034258;28;20097;-88
2022/04/21 04:34:58;;;;;;;12.15;9.07;;;4.30;99.90;;;;;;5050627;28;20028;-88
2022/04/21 04:37:24;;;;;;;14.15;9.65;;;4.20;99.90;;;;;;5066810;28;20078;-88
2022/04/21 04:39:50;;;;;;;14.20;9.48;;;4.20;99.90;;;;;;5034883;28;20071;-88
2022/04/21 04:42:22;;;;;;;14.43;10.02;;;4.20;99.90;;;;;;5069457;28;20044;-88
2022/04/21 04:46:34;;;;;;;13.10;9.32;;;4.20;99.90;;;;;;5019644;28;20032;-88
2022/04/21 04:47:38;;;;;;;14.45;9.10;;;4.40;99.90;;;;;;5052357;28;20511;-88
2022/04/21 04:50:04;;;;;;;16.00;9.75;;;4.20;99.90;;;;;;5033367;28;20557;-88
2022/04/21 04:52:30;;;;;;;17.70;10.15;;;4.20;99.90;;;;;;5067698;28;20035;-89
2022/04/21 04:54:56;;;;;;;14.18;9.98;;;4.20;99.90;;;;;;5020407;28;20077;-88
2022/04/21 04:57:23;;;;;;;15.98;10.10;;;4.40;99.90;;;;;;5039219;28;20044;-88
2022/04/21 04:59:48;;;;;;;15.52;9.77;;;4.20;99.90;;;;;;5069282;28;20123;-88
2022/04/21 05:02:14;;;;;;;15.57;9.85;;;4.30;99.90;;;;;;5069045;28;20119;-89
2022/04/21 05:04:40;;;;;;;15.50;9.95;;;5.10;99.90;;;;;;5055539;28;20035;-88
2022/04/21 05:07:06;;;;;;;15.13;9.73;;;4.50;99.90;;;;;;5054722;28;20548;-88
2022/04/21 05:09:31;;;;;;;12.13;9.48;;;4.40;99.90;;;;;;5071041;28;20032;-88
2022/04/21 05:11:57;;;;;;;16.65;10.32;;;4.40;99.90;;;;;;5057249;28;20036;-89
2022/04/21 05:14:24;;;;;;;19.02;10.60;;;4.40;99.90;;;;;;5060038;28;20944;-89
2022/04/21 05:16:51;;;;;;;14.57;10.30;;;4.40;99.90;;;;;;5055190;28;20048;-88
2022/04/21 05:19:19;;;;;;;15.23;9.60;;;4.50;99.90;;;;;;5057025;28;20032;-88
2022/04/21 05:21:47;;;;;;;14.38;9.68;;;4.50;99.90;;;;;;5054252;28;20032;-88
2022/04/21 05:24:13;;;;;;;17.20;11.02;;;4.50;99.90;;;;;;5069689;28;20494;-88
2022/04/21 05:26:40;;;;;;;17.63;10.73;;;4.60;99.90;;;;;;5043020;28;20055;-88
2022/04/21 05:31:55;;;;;;;17.05;10.18;;;4.70;99.90;;;;;;5084922;28;20094;-88
2022/04/21 05:34:22;;;;;;;17.58;10.30;;;4.80;99.90;;;;;;5071708;28;20393;-88
2022/04/21 05:36:49;;;;;;;13.52;9.15;;;4.80;99.90;;;;;;5041650;28;20072;-88
2022/04/21 05:39:15;;;;;;;15.70;10.38;;;4.80;99.90;;;;;;5054370;28;20147;-88
2022/04/21 05:41:41;;;;;;;15.98;10.00;;;4.90;99.90;;;;;;5062652;28;20142;-88
2022/04/21 05:44:07;;;;;;;13.57;9.93;;;4.90;99.90;;;;;;5033714;28;20033;-88
2022/04/21 05:46:33;;;;;;;14.27;10.27;;;4.90;99.90;;;;;;5055151;28;20032;-88
2022/04/21 05:48:59;;;;;;;14.77;10.13;;;4.90;99.90;;;;;;5039227;28;20083;-88
2022/04/21 05:51:25;;;;;;;18.30;11.35;;;5.00;99.90;;;;;;5032886;28;20037;-88
2022/04/21 05:53:52;;;;;;;14.25;9.43;;;5.00;99.90;;;;;;5052170;28;20039;-89
2022/04/21 05:56:18;;;;;;;14.18;9.38;;;5.10;99.90;;;;;;5066043;28;20048;-89
2022/04/21 05:58:44;;;;;;;14.13;9.65;;;5.20;99.90;;;;;;5064919;28;20039;-89
2022/04/21 06:01:10;;;;;;;14.48;9.15;;;5.60;99.90;;;;;;5050486;28;20032;-89
2022/04/21 06:03:37;;;;;;;11.48;8.70;;;5.50;99.90;;;;;;5048737;28;20052;-88
2022/04/21 06:06:04;;;;;;;16.83;8.95;;;5.70;99.90;;;;;;5079908;28;20059;-87
2022/04/21 06:08:30;;;;;;;15.10;9.45;;;5.80;99.90;;;;;;5096654;28;20040;-88
2022/04/21 06:10:56;;;;;;;12.60;7.97;;;6.00;99.90;;;;;;5023895;28;20052;-88
2022/04/21 06:13:26;;;;;;;12.93;8.45;;;6.10;99.90;;;;;;5050774;28;20545;-88
2022/04/21 06:15:52;;;;;;;15.88;8.38;;;6.30;99.90;;;;;;5061957;28;20016;-88
2022/04/21 06:18:19;;;;;;;14.95;7.97;;;6.40;99.90;;;;;;5091369;28;20048;-89
2022/04/21 06:20:46;;;;;;;11.52;8.32;;;6.50;99.90;;;;;;5050503;28;20485;-88
2022/04/21 06:23:12;;;;;;;11.88;8.18;;;6.60;99.90;;;;;;5050641;28;20084;-88
2022/04/21 06:25:38;;;;;;;9.55;7.20;;;6.70;99.90;;;;;;5051028;28;20054;-89
2022/04/21 06:28:04;;;;;;;10.73;7.70;;;6.90;99.90;;;;;;5048177;28;20147;-88
2022/04/21 06:30:31;;;;;;;9.73;7.45;;;7.00;99.90;;;;;;5051769;28;20086;-89
2022/04/21 06:33:00;;;;;;;9.55;6.10;;;7.20;99.90;;;;;;5064924;28;20040;-89
2022/04/21 06:35:26;;;;;;;8.77;6.32;;;7.30;99.90;;;;;;5033864;28;20058;-89
2022/04/21 06:37:53;;;;;;;9.18;6.13;;;7.50;99.90;;;;;;5028724;28;20040;-88
2022/04/21 06:40:19;;;;;;;9.38;6.90;;;7.60;99.90;;;;;;5050381;28;20047;-88
2022/04/21 06:42:46;;;;;;;10.98;6.47;;;8.20;99.90;;;;;;5048533;28;20115;-88
2022/04/21 06:48:03;;;;;;;10.55;6.25;;;8.00;99.90;;;;;;5054294;28;20501;-88
2022/04/21 06:50:36;;;;;;;11.63;6.60;;;8.10;99.90;;;;;;5072577;28;20064;-88
2022/04/21 06:53:04;;;;;;;9.43;6.38;;;8.30;99.90;;;;;;5073292;28;20032;-89
2022/04/21 06:55:30;;;;;;;8.30;5.85;;;8.50;99.90;;;;;;5062264;28;20033;-89
2022/04/21 06:57:56;;;;;;;10.10;5.57;;;8.60;99.90;;;;;;5045489;28;20558;-88
2022/04/21 07:00:24;;;;;;;8.13;5.47;;;8.70;99.90;;;;;;5030455;28;20052;-88
2022/04/21 07:02:55;;;;;;;8.32;5.63;;;8.90;99.90;;;;;;5030943;28;20033;-87
2022/04/21 07:05:22;;;;;;;6.90;4.97;;;9.10;99.90;;;;;;5029925;28;20423;-88
2022/04/21 07:07:49;;;;;;;7.25;4.38;;;9.20;99.90;;;;;;5044910;28;20045;-89
2022/04/21 07:10:15;;;;;;;9.23;5.70;;;9.40;99.90;;;;;;5059120;28;20036;-88
2022/04/21 07:12:41;;;;;;;7.40;4.70;;;9.60;99.90;;;;;;5041297;28;20488;-88
2022/04/21 07:15:09;;;;;;;6.35;4.63;;;9.80;99.90;;;;;;5039029;28;20651;-88
2022/04/21 07:17:36;;;;;;;6.43;4.70;;;10.00;99.90;;;;;;5042895;28;20082;-89
2022/04/21 07:20:04;;;;;;;9.00;4.40;;;10.60;99.90;;;;;;5038984;28;20131;-88
2022/04/21 07:22:30;;;;;;;9.30;4.38;;;11.70;99.90;;;;;;5038073;28;20048;-92
2022/04/21 07:24:56;;;;;;;6.13;4.03;;;12.70;99.90;;;;;;5044099;28;20040;-89
2022/04/21 07:27:23;;;;;;;6.10;3.97;;;13.70;99.90;;;;;;5041992;28;20059;-85
2022/04/21 07:29:50;;;;;;;4.43;3.47;;;14.30;99.10;;;;;;5021764;28;20517;-85
2022/04/21 07:32:16;;;;;;;5.15;3.45;;;15.00;96.00;;;;;;5059245;28;20034;-87
2022/04/21 07:34:42;;;;;;;6.78;3.33;;;15.30;96.20;;;;;;5040233;28;20036;-87
2022/04/21 07:37:09;;;;;;;4.00;3.08;;;15.70;94.10;;;;;;5055179;28;20110;-90
2022/04/21 07:39:36;;;;;;;5.38;3.78;;;15.70;93.10;;;;;;5046985;28;20040;-88
2022/04/21 07:42:03;;;;;;;4.45;3.33;;;16.10;92.30;;;;;;5038564;28;20033;-88
2022/04/21 07:44:31;;;;;;;4.95;3.67;;;16.40;90.70;;;;;;5055922;28;20040;-85
2022/04/21 07:46:57;;;;;;;5.30;3.42;;;16.70;90.20;;;;;;5056103;28;20048;-87
2022/04/21 07:54:52;;;;;;;3.97;3.35;;;17.20;85.30;;;;;;5075731;28;20029;-87
2022/04/21 07:57:18;;;;;;;3.03;2.65;;;17.20;83.20;;;;;;5054726;28;20063;-87
2022/04/21 07:59:45;;;;;;;5.57;3.10;;;17.40;83.20;;;;;;5072144;28;20486;-87
2022/04/21 08:02:11;;;;;;;5.63;3.20;;;17.40;80.20;;;;;;5055848;28;20078;-87
2022/04/21 08:04:40;;;;;;;3.63;2.90;;;17.70;80.90;;;;;;5073702;28;20040;-87
2022/04/21 08:07:06;;;;;;;4.82;3.08;;;17.70;77.10;;;;;;5056501;28;20044;-87
2022/04/21 08:09:32;;;;;;;5.47;3.15;;;17.30;76.20;;;;;;5058306;28;20455;-87
2022/04/21 08:11:57;;;;;;;6.53;3.38;;;17.50;78.40;;;;;;5057966;28;20386;-86
2022/04/21 08:14:25;;;;;;;5.30;3.30;;;17.70;77.00;;;;;;5059875;28;20032;-87
2022/04/21 08:16:53;;;;;;;5.93;3.60;;;17.60;76.50;;;;;;5074388;28;20135;-87
2022/04/21 08:19:19;;;;;;;5.82;3.35;;;17.90;77.10;;;;;;5055043;28;20045;-87
2022/04/21 08:21:47;;;;;;;3.75;3.30;;;18.10;77.30;;;;;;5056803;28;20760;-87
2022/04/21 08:32:41;;;;;;;4.80;3.05;;;18.40;74.40;;;;;;5062140;28;20489;-86
2022/04/21 08:35:07;;;;;;;4.43;3.58;;;18.30;73.70;;;;;;5059561;28;20092;-87
2022/04/21 08:37:33;;;;;;;3.75;3.10;;;18.30;73.60;;;;;;5093505;28;20493;-87
2022/04/21 08:40:00;;;;;;;3.95;3.13;;;18.50;73.00;;;;;;5061083;28;20036;-87
2022/04/21 08:42:30;;;;;;;5.53;3.78;;;18.70;71.80;;;;;;5076541;28;20036;-87
2022/04/21 08:44:58;;;;;;;5.40;3.55;;;18.40;72.30;;;;;;5075963;28;20083;-88
2022/04/21 08:47:27;;;;;;;5.05;3.20;;;18.50;72.30;;;;;;5075469;28;20039;-87
2022/04/21 08:49:59;;;;;;;8.73;3.15;;;18.30;71.60;;;;;;5075870;28;20059;-87
2022/04/21 08:52:27;;;;;;;4.07;3.30;;;18.30;71.70;;;;;;5061344;28;20098;-88
2022/04/21 08:54:54;;;;;;;3.67;3.20;;;17.90;71.90;;;;;;5075778;28;20123;-87
2022/04/21 08:57:21;;;;;;;4.65;3.65;;;17.90;72.50;;;;;;5045135;28;20037;-88
2022/04/21 08:59:47;;;;;;;5.10;3.53;;;18.30;71.80;;;;;;5070020;28;20125;-88
2022/04/21 09:02:13;;;;;;;7.70;3.92;;;18.10;72.60;;;;;;5047199;28;20067;-88
2022/04/21 09:04:39;;;;;;;7.05;3.45;;;18.40;73.40;;;;;;5061869;28;20048;-87
2022/04/21 09:07:19;;;;;;;5.57;3.45;;;18.60;72.50;;;;;;5059931;28;20033;-88
2022/04/21 09:10:15;;;;;;;4.28;3.05;;;18.70;71.10;;;;;;5077667;28;20104;-88
2022/04/21 09:12:48;;;;;;;4.97;3.13;;;18.70;71.50;;;;;;5056782;28;20123;-88
2022/04/21 09:15:16;;;;;;;6.70;3.67;;;18.80;69.50;;;;;;5077502;28;20179;-88
2022/04/21 09:17:45;;;;;;;5.20;3.60;;;19.10;71.00;;;;;;5077270;28;20520;-88
2022/04/21 09:20:12;;;;;;;3.70;3.28;;;19.10;70.60;;;;;;5077626;28;20048;-88
2022/04/21 09:22:46;;;;;;;6.53;3.50;;;19.00;69.70;;;;;;5077888;28;20059;-88
2022/04/21 09:25:12;;;;;;;5.82;3.42;;;19.10;70.10;;;;;;5069505;28;20127;-87
2022/04/21 09:27:43;;;;;;;3.80;3.00;;;18.80;70.50;;;;;;5077332;28;20057;-88
2022/04/21 09:30:13;;;;;;;4.60;2.85;;;18.80;69.70;;;;;;5077527;28;20032;-88
2022/04/21 09:32:40;;;;;;;4.68;3.13;;;19.00;70.00;;;;;;5073541;28;20062;-88
2022/04/21 09:35:09;;;;;;;8.77;3.75;;;19.00;69.80;;;;;;5089309;28;20031;-88
2022/04/21 09:37:51;;;;;;;6.35;3.38;;;19.30;69.30;;;;;;5077120;28;20049;-88
2022/04/21 09:40:18;;;;;;;;;;;19.30;69.70;;;;;;5046426;28;20048;-88
2022/04/21 09:43:03;;;;;;;8.57;3.42;;;19.30;69.60;;;;;;5074821;28;19916;-88
2022/04/21 09:48:18;;;;;;;4.53;3.42;;;18.90;66.40;;;;;;5073618;28;20076;-88
2022/04/21 09:50:49;;;;;;;4.90;3.20;;;18.60;67.20;;;;;;5057937;28;20068;-88
2022/04/21 09:53:17;;;;;;;3.30;2.95;;;18.60;69.10;;;;;;5046950;28;20109;-88
2022/04/21 09:55:44;;;;;;;3.53;2.78;;;18.80;70.50;;;;;;5057371;28;20043;-88
2022/04/21 09:58:10;;;;;;;3.80;3.30;;;19.00;68.90;;;;;;5057106;28;20055;-88
2022/04/21 10:00:38;;;;;;;4.18;3.20;;;19.10;68.20;;;;;;5060751;28;20379;-87
2022/04/21 10:03:05;;;;;;;5.25;3.45;;;19.30;67.90;;;;;;5083230;28;20020;-87
2022/04/21 10:05:33;;;;;;;5.25;3.65;;;19.50;67.50;;;;;;5091165;28;20036;-88
2022/04/21 10:08:05;;;;;;;4.75;3.40;;;19.50;67.30;;;;;;5086842;28;20032;-88
2022/04/21 10:10:35;;;;;;;4.40;3.20;;;19.50;66.90;;;;;;5071095;28;20044;-88
2022/04/21 10:13:02;;;;;;;4.18;3.13;;;19.40;66.40;;;;;;5067664;28;20103;-89
2022/04/21 10:15:30;;;;;;;3.80;3.10;;;19.40;66.80;;;;;;5086446;28;20048;-88
2022/04/21 10:17:56;;;;;;;7.78;3.22;;;19.50;66.40;;;;;;5071900;28;20049;-87
2022/04/21 10:20:24;;;;;;;5.32;3.20;;;19.60;65.60;;;;;;5080391;28;20031;-89
2022/04/21 10:22:51;;;;;;;4.47;3.25;;;19.80;67.20;;;;;;5091120;28;20036;-89
2022/04/21 10:25:18;;;;;;;6.38;3.55;;;19.60;66.90;;;;;;5088615;28;20046;-88
2022/04/21 10:27:47;;;;;;;4.47;3.22;;;19.50;66.30;;;;;;5088917;28;20087;-88
2022/04/21 10:30:21;;;;;;;4.72;3.60;;;19.30;66.30;;;;;;5057554;28;20021;-87
2022/04/21 10:32:53;;;;;;;7.97;3.33;;;19.30;66.30;;;;;;5097452;28;20028;-88
2022/04/21 10:35:28;;;;;;;5.63;3.20;;;19.20;67.00;;;;;;5089673;28;20147;-89
2022/04/21 10:38:12;;;;;;;4.78;3.72;;;18.70;67.50;;;;;;5078813;28;20032;-89
2022/04/21 10:41:10;;;;;;;5.03;3.40;;;18.70;68.00;;;;;;5098993;28;20031;-90
2022/04/21 10:43:48;;;;;;;5.38;3.20;;;18.70;68.60;;;;;;5071860;28;20062;-89
2022/04/21 10:46:24;;;;;;;6.28;2.85;;;18.90;68.20;;;;;;5100573;28;20040;-89
2022/04/21 10:48:50;;;;;;;6.57;3.35;;;19.20;66.90;;;;;;5078697;28;20100;-90
2022/04/21 10:57:12;;;;;;;5.05;3.70;;;19.30;67.30;;;;;;5062751;28;20032;-89
2022/04/21 10:57:31;;;;;;;6.22;3.70;;;20.00;68.30;;;;;;5100115;28;20040;-89
2022/04/21 10:59:57;;;;;;;5.70;3.30;;;20.30;66.40;;;;;;5066698;28;20016;-89
2022/04/21 11:02:46;;;;;;;3.97;3.40;;;20.50;66.20;;;;;;5099465;28;20035;-91
2022/04/21 11:05:33;;;;;;;5.60;3.13;;;20.30;65.50;;;;;;5065790;28;20139;-89
2022/04/21 11:08:04;;;;;;;7.68;3.30;;;20.10;64.90;;;;;;5082487;28;20085;-88
2022/04/21 11:10:39;;;;;;;4.68;3.65;;;19.90;64.90;;;;;;5080749;28;20071;-90
2022/04/21 11:13:07;;;;;;;4.97;3.65;;;20.00;66.70;;;;;;5083699;28;20096;-91
2022/04/21 11:15:46;;;;;;;4.55;3.45;;;19.90;65.90;;;;;;5077775;28;20055;-89
2022/04/21 11:18:27;;;;;;;5.57;3.70;;;19.70;67.50;;;;;;5098721;28;20056;-90
2022/04/21 11:21:26;;;;;;;5.00;3.13;;;19.60;66.30;;;;;;5098256;28;20104;-90
2022/04/21 11:23:52;;;;;;;6.38;3.90;;;19.80;67.40;;;;;;5077008;28;20107;-87
2022/04/21 11:26:25;;;;;;;4.13;3.38;;;19.80;66.50;;;;;;5094478;28;20035;-90
2022/04/21 11:28:59;;;;;;;4.82;3.35;;;19.60;66.20;;;;;;5074678;28;20044;-86
2022/04/21 11:31:25;;;;;;;6.25;3.45;;;19.60;66.20;;;;;;5088487;28;20036;-87
2022/04/21 11:33:51;;;;;;;4.47;3.53;;;19.70;66.20;;;;;;5057250;28;20060;-87
2022/04/21 11:36:33;;;;;;;5.18;3.45;;;19.90;66.70;;;;;;5057976;28;20036;-88
2022/04/21 11:39:06;;;;;;;5.30;3.80;;;20.00;67.10;;;;;;5070218;28;20060;-86
2022/04/21 11:41:32;;;;;;;4.50;4.10;;;20.30;65.60;;;;;;5090578;28;20115;-88
2022/04/21 11:43:59;;;;;;;5.40;3.80;;;20.10;66.00;;;;;;5082753;28;20037;-87
2022/04/21 11:46:25;;;;;;;6.15;4.00;;;20.00;66.50;;;;;;5089237;28;20047;-86
2022/04/21 11:49:00;;;;;;;6.40;3.90;;;19.80;66.50;;;;;;5076219;28;20033;-87
2022/04/21 11:51:27;;;;;;;6.40;4.10;;;19.30;66.90;;;;;;5075915;28;20040;-87
2022/04/21 11:53:53;;;;;;;4.75;3.78;;;19.10;66.60;;;;;;5093312;28;20048;-87
2022/04/21 11:56:21;;;;;;;7.53;4.10;;;19.20;67.30;;;;;;5101370;28;20045;-87
2022/04/21 11:58:47;;;;;;;7.30;4.13;;;19.30;67.40;;;;;;5076104;28;20040;-87
2022/04/21 12:06:46;;;;;;;7.45;3.70;;;18.70;67.10;;;;;;5074335;28;20513;-88
2022/04/21 12:09:16;;;;;;;5.97;3.70;;;18.50;66.90;;;;;;5064776;28;20092;-88
2022/04/21 12:12:00;;;;;;;6.88;3.90;;;18.30;67.20;;;;;;5070679;28;20036;-88
2022/04/21 12:14:27;;;;;;;4.85;3.70;;;18.10;67.90;;;;;;5056244;28;20119;-88
2022/04/21 12:17:02;;;;;;;4.53;3.60;;;17.90;68.00;;;;;;5057904;28;20454;-87
2022/04/21 12:19:33;;;;;;;5.53;3.33;;;18.10;67.50;;;;;;5055340;28;20046;-87
2022/04/21 12:22:16;;;;;;;4.28;3.17;;;18.50;66.80;;;;;;5056247;28;20052;-87
2022/04/21 12:24:44;;;;;;;8.48;3.65;;;18.60;67.30;;;;;;5090739;28;20044;-86
2022/04/21 12:27:16;;;;;;;5.10;4.10;;;18.70;67.20;;;;;;5054280;28;20053;-87
2022/04/21 12:30:05;;;;;;;6.63;3.55;;;18.60;68.40;;;;;;5073124;28;20044;-87
2022/04/21 12:32:35;;;;;;;5.03;3.63;;;18.30;66.00;;;;;;5071712;28;20559;-87
2022/04/21 12:35:06;;;;;;;6.28;3.95;;;18.40;67.50;;;;;;5064443;28;20041;-85
2022/04/21 12:37:36;;;;;;;10.18;3.83;;;18.30;67.10;;;;;;5067434;28;20083;-87
2022/04/21 12:40:13;;;;;;;5.68;4.40;;;18.30;67.20;;;;;;5065631;28;20074;-86
2022/04/21 12:42:40;;;;;;;4.43;3.67;;;18.20;67.00;;;;;;5074324;28;20045;-91
2022/04/21 12:45:08;;;;;;;7.53;4.30;;;18.60;67.50;;;;;;5055316;28;20119;-85
2022/04/21 12:47:47;;;;;;;5.55;3.72;;;18.90;68.80;;;;;;5071230;28;20076;-86
2022/04/21 12:50:23;;;;;;;5.82;3.67;;;19.30;67.30;;;;;;5035061;28;20051;-85
2022/04/21 12:52:50;;;;;;;7.68;3.65;;;19.60;68.00;;;;;;5056921;28;20102;-85
2022/04/21 12:55:22;;;;;;;5.20;3.65;;;19.90;68.70;;;;;;5068840;28;20071;-86
2022/04/21 12:58:05;;;;;;;5.25;4.03;;;20.00;66.60;;;;;;5063060;28;20039;-86
2022/04/21 13:00:32;;;;;;;4.82;3.45;;;20.00;66.40;;;;;;5042237;28;20048;-85
2022/04/21 13:02:59;;;;;;;7.75;4.05;;;20.30;66.60;;;;;;5051805;28;20064;-85
2022/04/21 13:05:25;;;;;;;4.35;3.42;;;20.40;65.70;;;;;;5045624;28;20386;-86
2022/04/21 13:07:51;;;;;;;7.43;4.30;;;20.10;65.00;;;;;;5013191;28;20055;-86
2022/04/21 13:10:17;;;;;;;5.32;4.00;;;19.90;65.00;;;;;;5061429;28;20115;-85
2022/04/21 13:12:43;;;;;;;6.78;4.00;;;19.80;64.50;;;;;;5064896;28;20041;-86
2022/04/21 13:15:09;;;;;;;5.25;3.55;;;20.10;66.00;;;;;;5065113;28;20033;-85
2022/04/21 13:17:35;;;;;;;7.03;4.47;;;20.10;64.50;;;;;;5040190;28;20049;-85
2022/04/21 13:20:01;;;;;;;4.95;3.53;;;20.30;65.10;;;;;;5020534;28;20052;-86
2022/04/21 13:22:27;;;;;;;5.07;3.78;;;20.30;64.70;;;;;;5052532;28;20044;-84
2022/04/21 13:24:52;;;;;;;5.10;3.85;;;20.30;65.30;;;;;;5036432;28;20041;-84
2022/04/21 13:27:21;;;;;;;4.65;3.90;;;20.00;64.40;;;;;;5065240;28;20409;-84
2022/04/21 13:29:47;;;;;;;5.53;3.72;;;20.10;66.00;;;;;;5049717;28;20102;-83
2022/04/21 13:34:57;;;;;;;6.55;3.80;;;20.50;64.80;;;;;;5068169;28;20589;-84
2022/04/21 13:37:23;;;;;;;7.05;3.67;;;20.60;64.50;;;;;;5049309;28;20123;-84
2022/04/21 13:39:49;;;;;;;4.00;3.40;;;20.90;63.80;;;;;;5067867;28;20093;-84
2022/04/21 13:42:15;;;;;;;7.68;4.00;;;21.20;64.80;;;;;;5033579;28;20056;-84
2022/04/21 13:44:40;;;;;;;8.15;4.00;;;21.20;64.00;;;;;;5035314;28;20040;-84
2022/04/21 13:47:06;;;;;;;6.18;3.83;;;21.10;63.00;;;;;;5050919;28;20028;-84
2022/04/21 13:49:32;;;;;;;5.80;4.45;;;21.30;63.40;;;;;;5052232;28;20040;-84
2022/04/21 13:51:59;;;;;;;6.68;4.75;;;21.60;63.00;;;;;;5059216;28;20032;-84
2022/04/21 13:54:25;;;;;;;5.53;4.00;;;21.70;62.10;;;;;;5044231;28;20055;-84